sensor_id;sensor_type;location;lat;lon;timestamp;temperature;humidity
3566;DHT22;1797;51.844;7.684;2023-05-07T00:00:33;14.50;99.90
3566;DHT22;1797;51.844;7.684;2023-05-07T00:02:59;14.50;99.90
3566;DHT22;1797;51.844;7.684;2023-05-07T00:05:25;14.50;99.90
3566;DHT22;1797;51.844;7.684;2023-05-07T00:07:51;14.50;99.90
3566;DHT22;1797;51.844;7.684;2023-05-07T00:10:18;14.40;99.90
3566;DHT22;1797;51.844;7.684;2023-05-07T00:12:43;14.40;99.90
3566;DHT22;1797;51.844;7.684;2023-05-07T00:15:10;14.40;99.90
3566;DHT22;1797;51.844;7.684;2023-05-07T00:17:36;14.30;99.90
3566;DHT22;1797;51.844;7.684;2023-05-07T00:20:03;14.40;99.90
3566;DHT22;1797;51.844;7.684;2023-05-07T00:22:29;14.30;99.90
3566;DHT22;1797;51.844;7.684;2023-05-07T00:24:55;14.30;99.90
3566;DHT22;1797;51.844;7.684;2023-05-07T00:27:22;14.30;99.90
3566;DHT22;1797;51.844;7.684;2023-05-07T00:29:47;14.30;99.90
3566;DHT22;1797;51.844;7.684;2023-05-07T00:32:13;14.10;99.90
3566;DHT22;1797;51.844;7.684;2023-05-07T00:34:38;14.20;99.90
3566;DHT22;1797;51.844;7.684;2023-05-07T00:37:05;14.20;99.90
3566;DHT22;1797;51.844;7.684;2023-05-07T00:39:33;14.20;99.90
3566;DHT22;1797;51.844;7.684;2023-05-07T00:41:59;14.20;99.90
3566;DHT22;1797;51.844;7.684;2023-05-07T00:44:24;14.20;99.90
3566;DHT22;1797;51.844;7.684;2023-05-07T00:46:50;14.20;99.90
3566;DHT22;1797;51.844;7.684;2023-05-07T00:49:16;14.20;99.90
3566;DHT22;1797;51.844;7.684;2023-05-07T00:51:42;14.30;99.90
3566;DHT22;1797;51.844;7.684;2023-05-07T00:54:08;14.20;99.90
3566;DHT22;1797;51.844;7.684;2023-05-07T00:56:34;14.20;99.90
3566;DHT22;1797;51.844;7.684;2023-05-07T00:59:02;14.30;99.90
3566;DHT22;1797;51.844;7.684;2023-05-07T01:01:28;14.20;99.90
3566;DHT22;1797;51.844;7.684;2023-05-07T01:03:54;14.10;99.90
3566;DHT22;1797;51.844;7.684;2023-05-07T01:06:20;14.10;99.90
3566;DHT22;1797;51.844;7.684;2023-05-07T01:08:47;14.10;99.90
3566;DHT22;1797;51.844;7.684;2023-05-07T01:11:14;14.10;99.90
3566;DHT22;1797;51.844;7.684;2023-05-07T01:13:40;14.10;99.90
3566;DHT22;1797;51.844;7.684;2023-05-07T01:16:08;14.00;99.90
3566;DHT22;1797;51.844;7.684;2023-05-07T01:18:34;14.00;99.90
3566;DHT22;1797;51.844;7.684;2023-05-07T01:21:01;14.00;99.90
3566;DHT22;1797;51.844;7.684;2023-05-07T01:23:29;14.00;99.90
3566;DHT22;1797;51.844;7.684;2023-05-07T01:25:55;14.10;99.90
3566;DHT22;1797;51.844;7.684;2023-05-07T01:28:21;14.00;99.90
3566;DHT22;1797;51.844;7.684;2023-05-07T01:30:52;14.00;99.90
3566;DHT22;1797;51.844;7.684;2023-05-07T01:33:20;14.00;99.90
3566;DHT22;1797;51.844;7.684;2023-05-07T01:35:52;14.00;99.90
3566;DHT22;1797;51.844;7.684;2023-05-07T01:38:19;14.00;99.90
3566;DHT22;1797;51.844;7.684;2023-05-07T01:40:45;14.00;99.90
3566;DHT22;1797;51.844;7.684;2023-05-07T01:43:12;14.00;99.90
3566;DHT22;1797;51.844;7.684;2023-05-07T01:45:38;14.10;99.90
3566;DHT22;1797;51.844;7.684;2023-05-07T01:48:06;14.10;99.90
3566;DHT22;1797;51.844;7.684;2023-05-07T01:50:33;14.10;99.90
3566;DHT22;1797;51.844;7.684;2023-05-07T01:53:01;14.00;99.90
3566;DHT22;1797;51.844;7.684;2023-05-07T01:55:27;14.00;99.90
3566;DHT22;1797;51.844;7.684;2023-05-07T01:57:53;14.00;99.90
3566;DHT22;1797;51.844;7.684;2023-05-07T02:00:19;14.00;99.90
3566;DHT22;1797;51.844;7.684;2023-05-07T02:02:44;14.00;99.90
3566;DHT22;1797;51.844;7.684;2023-05-07T02:05:10;14.00;99.90
3566;DHT22;1797;51.844;7.684;2023-05-07T02:07:36;14.00;99.90
3566;DHT22;1797;51.844;7.684;2023-05-07T02:10:02;14.00;99.90
3566;DHT22;1797;51.844;7.684;2023-05-07T02:12:28;13.90;99.90
3566;DHT22;1797;51.844;7.684;2023-05-07T02:14:53;13.90;99.90
3566;DHT22;1797;51.844;7.684;2023-05-07T02:17:19;13.90;99.90
3566;DHT22;1797;51.844;7.684;2023-05-07T02:19:45;13.90;99.90
3566;DHT22;1797;51.844;7.684;2023-05-07T02:22:10;13.80;99.90
3566;DHT22;1797;51.844;7.684;2023-05-07T02:24:36;13.80;99.90
3566;DHT22;1797;51.844;7.684;2023-05-07T02:27:01;13.90;99.90
3566;DHT22;1797;51.844;7.684;2023-05-07T02:29:28;13.90;99.90
3566;DHT22;1797;51.844;7.684;2023-05-07T02:31:54;13.80;99.90
3566;DHT22;1797;51.844;7.684;2023-05-07T02:34:20;13.80;99.90
3566;DHT22;1797;51.844;7.684;2023-05-07T02:36:46;13.80;99.90
3566;DHT22;1797;51.844;7.684;2023-05-07T02:39:12;13.90;99.90
3566;DHT22;1797;51.844;7.684;2023-05-07T02:41:39;13.70;99.90
3566;DHT22;1797;51.844;7.684;2023-05-07T02:44:04;13.70;99.90
3566;DHT22;1797;51.844;7.684;2023-05-07T02:46:30;13.80;99.90
3566;DHT22;1797;51.844;7.684;2023-05-07T02:48:56;13.80;99.90
3566;DHT22;1797;51.844;7.684;2023-05-07T02:51:22;13.70;99.90
3566;DHT22;1797;51.844;7.684;2023-05-07T02:53:48;13.70;99.90
3566;DHT22;1797;51.844;7.684;2023-05-07T02:56:14;13.70;99.90
3566;DHT22;1797;51.844;7.684;2023-05-07T02:58:39;13.70;99.90
3566;DHT22;1797;51.844;7.684;2023-05-07T03:01:05;13.60;99.90
3566;DHT22;1797;51.844;7.684;2023-05-07T03:03:31;13.70;99.90
3566;DHT22;1797;51.844;7.684;2023-05-07T03:05:57;13.60;99.90
3566;DHT22;1797;51.844;7.684;2023-05-07T03:08:24;13.60;99.90
3566;DHT22;1797;51.844;7.684;2023-05-07T03:10:50;13.60;99.90
3566;DHT22;1797;51.844;7.684;2023-05-07T03:13:15;13.60;99.90
3566;DHT22;1797;51.844;7.684;2023-05-07T03:15:41;13.60;99.90
3566;DHT22;1797;51.844;7.684;2023-05-07T03:18:07;13.50;99.90
3566;DHT22;1797;51.844;7.684;2023-05-07T03:20:32;13.60;99.90
3566;DHT22;1797;51.844;7.684;2023-05-07T03:22:58;13.50;99.90
3566;DHT22;1797;51.844;7.684;2023-05-07T03:25:24;13.60;99.90
3566;DHT22;1797;51.844;7.684;2023-05-07T03:27:49;13.50;99.90
3566;DHT22;1797;51.844;7.684;2023-05-07T03:30:15;13.60;99.90
3566;DHT22;1797;51.844;7.684;2023-05-07T03:32:40;13.50;99.90
3566;DHT22;1797;51.844;7.684;2023-05-07T03:35:06;13.50;99.90
3566;DHT22;1797;51.844;7.684;2023-05-07T03:37:32;13.50;99.90
3566;DHT22;1797;51.844;7.684;2023-05-07T03:39:58;13.50;99.90
3566;DHT22;1797;51.844;7.684;2023-05-07T03:42:23;13.50;99.90
3566;DHT22;1797;51.844;7.684;2023-05-07T03:44:49;13.40;99.90
3566;DHT22;1797;51.844;7.684;2023-05-07T03:47:15;13.40;99.90
3566;DHT22;1797;51.844;7.684;2023-05-07T03:49:40;13.50;99.90
3566;DHT22;1797;51.844;7.684;2023-05-07T03:52:06;13.40;99.90
3566;DHT22;1797;51.844;7.684;2023-05-07T03:54:32;13.50;99.90
3566;DHT22;1797;51.844;7.684;2023-05-07T03:56:57;13.40;99.90
3566;DHT22;1797;51.844;7.684;2023-05-07T03:59:23;13.40;99.90
3566;DHT22;1797;51.844;7.684;2023-05-07T04:01:49;13.40;99.90
3566;DHT22;1797;51.844;7.684;2023-05-07T04:04:15;13.40;99.90
3566;DHT22;1797;51.844;7.684;2023-05-07T04:06:41;13.40;99.90
3566;DHT22;1797;51.844;7.684;2023-05-07T04:09:07;13.40;99.90
3566;DHT22;1797;51.844;7.684;2023-05-07T04:11:32;13.40;99.90
3566;DHT22;1797;51.844;7.684;2023-05-07T04:13:58;13.20;99.90
3566;DHT22;1797;51.844;7.684;2023-05-07T04:16:23;13.20;99.90
3566;DHT22;1797;51.844;7.684;2023-05-07T04:18:49;13.20;99.90
3566;DHT22;1797;51.844;7.684;2023-05-07T04:21:16;13.20;99.90
3566;DHT22;1797;51.844;7.684;2023-05-07T04:23:42;13.20;99.90
3566;DHT22;1797;51.844;7.684;2023-05-07T04:26:07;13.10;99.90
3566;DHT22;1797;51.844;7.684;2023-05-07T04:28:33;13.10;99.90
3566;DHT22;1797;51.844;7.684;2023-05-07T04:30:59;13.20;99.90
3566;DHT22;1797;51.844;7.684;2023-05-07T04:33:24;13.10;99.90
3566;DHT22;1797;51.844;7.684;2023-05-07T04:35:50;13.20;99.90
3566;DHT22;1797;51.844;7.684;2023-05-07T04:38:16;13.20;99.90
3566;DHT22;1797;51.844;7.684;2023-05-07T04:40:42;13.20;99.90
3566;DHT22;1797;51.844;7.684;2023-05-07T04:43:07;13.20;99.90
3566;DHT22;1797;51.844;7.684;2023-05-07T04:45:35;13.10;99.90
3566;DHT22;1797;51.844;7.684;2023-05-07T04:48:00;13.10;99.90
3566;DHT22;1797;51.844;7.684;2023-05-07T04:50:26;13.10;99.90
3566;DHT22;1797;51.844;7.684;2023-05-07T04:52:52;13.10;99.90
3566;DHT22;1797;51.844;7.684;2023-05-07T04:55:17;13.10;99.90
3566;DHT22;1797;51.844;7.684;2023-05-07T04:57:43;13.10;99.90
3566;DHT22;1797;51.844;7.684;2023-05-07T05:00:09;13.10;99.90
3566;DHT22;1797;51.844;7.684;2023-05-07T05:02:35;13.10;99.90
3566;DHT22;1797;51.844;7.684;2023-05-07T05:05:01;13.10;99.90
3566;DHT22;1797;51.844;7.684;2023-05-07T05:07:27;13.10;99.90
3566;DHT22;1797;51.844;7.684;2023-05-07T05:09:54;13.20;99.90
3566;DHT22;1797;51.844;7.684;2023-05-07T05:12:20;13.20;99.90
3566;DHT22;1797;51.844;7.684;2023-05-07T05:14:45;13.20;99.90
3566;DHT22;1797;51.844;7.684;2023-05-07T05:17:11;13.20;99.90
3566;DHT22;1797;51.844;7.684;2023-05-07T05:19:36;13.30;99.90
3566;DHT22;1797;51.844;7.684;2023-05-07T05:22:02;13.30;99.90
3566;DHT22;1797;51.844;7.684;2023-05-07T05:24:29;13.30;99.90
3566;DHT22;1797;51.844;7.684;2023-05-07T05:26:55;13.40;99.90
3566;DHT22;1797;51.844;7.684;2023-05-07T05:29:21;13.40;99.90
3566;DHT22;1797;51.844;7.684;2023-05-07T05:31:46;13.50;99.90
3566;DHT22;1797;51.844;7.684;2023-05-07T05:34:12;13.50;99.90
3566;DHT22;1797;51.844;7.684;2023-05-07T05:36:37;13.60;99.90
3566;DHT22;1797;51.844;7.684;2023-05-07T05:39:04;13.70;99.90
3566;DHT22;1797;51.844;7.684;2023-05-07T05:41:29;13.70;99.90
3566;DHT22;1797;51.844;7.684;2023-05-07T05:43:55;13.70;99.90
3566;DHT22;1797;51.844;7.684;2023-05-07T05:46:21;13.80;99.90
3566;DHT22;1797;51.844;7.684;2023-05-07T05:48:47;13.80;99.90
3566;DHT22;1797;51.844;7.684;2023-05-07T05:51:12;13.90;99.90
3566;DHT22;1797;51.844;7.684;2023-05-07T05:53:38;13.90;99.90
3566;DHT22;1797;51.844;7.684;2023-05-07T05:56:04;13.90;99.90
3566;DHT22;1797;51.844;7.684;2023-05-07T05:58:30;13.90;99.90
3566;DHT22;1797;51.844;7.684;2023-05-07T06:00:55;14.10;99.90
3566;DHT22;1797;51.844;7.684;2023-05-07T06:03:22;14.10;99.90
3566;DHT22;1797;51.844;7.684;2023-05-07T06:05:47;14.20;99.90
3566;DHT22;1797;51.844;7.684;2023-05-07T06:08:13;14.20;99.90
3566;DHT22;1797;51.844;7.684;2023-05-07T06:10:39;14.30;99.90
3566;DHT22;1797;51.844;7.684;2023-05-07T06:13:04;14.40;99.90
3566;DHT22;1797;51.844;7.684;2023-05-07T06:15:30;14.40;99.90
3566;DHT22;1797;51.844;7.684;2023-05-07T06:17:56;14.40;99.90
3566;DHT22;1797;51.844;7.684;2023-05-07T06:20:23;14.50;99.90
3566;DHT22;1797;51.844;7.684;2023-05-07T06:22:48;14.60;1.00
3566;DHT22;1797;51.844;7.684;2023-05-07T06:25:14;14.60;1.00
3566;DHT22;1797;51.844;7.684;2023-05-07T06:27:40;14.60;1.00
3566;DHT22;1797;51.844;7.684;2023-05-07T06:30:06;14.70;1.00
3566;DHT22;1797;51.844;7.684;2023-05-07T06:32:32;14.70;1.00
3566;DHT22;1797;51.844;7.684;2023-05-07T06:34:58;14.80;1.00
3566;DHT22;1797;51.844;7.684;2023-05-07T06:37:23;14.90;1.00
3566;DHT22;1797;51.844;7.684;2023-05-07T06:39:49;15.00;1.00
3566;DHT22;1797;51.844;7.684;2023-05-07T06:42:15;15.10;1.00
3566;DHT22;1797;51.844;7.684;2023-05-07T06:44:40;15.30;99.90
3566;DHT22;1797;51.844;7.684;2023-05-07T06:47:06;15.20;99.90
3566;DHT22;1797;51.844;7.684;2023-05-07T06:49:31;15.20;99.90
3566;DHT22;1797;51.844;7.684;2023-05-07T06:51:57;15.40;99.90
3566;DHT22;1797;51.844;7.684;2023-05-07T06:54:23;15.40;72.40
3566;DHT22;1797;51.844;7.684;2023-05-07T06:56:49;15.60;99.90
3566;DHT22;1797;51.844;7.684;2023-05-07T06:59:15;15.70;99.90
3566;DHT22;1797;51.844;7.684;2023-05-07T07:01:41;15.80;1.00
3566;DHT22;1797;51.844;7.684;2023-05-07T07:04:06;16.00;1.00
3566;DHT22;1797;51.844;7.684;2023-05-07T07:06:32;16.10;1.00
3566;DHT22;1797;51.844;7.684;2023-05-07T07:08:58;16.10;99.90
3566;DHT22;1797;51.844;7.684;2023-05-07T07:11:24;16.20;96.90
3566;DHT22;1797;51.844;7.684;2023-05-07T07:13:49;16.30;74.80
3566;DHT22;1797;51.844;7.684;2023-05-07T07:16:16;16.30;1.00
3566;DHT22;1797;51.844;7.684;2023-05-07T07:18:42;16.50;1.00
3566;DHT22;1797;51.844;7.684;2023-05-07T07:21:07;16.50;1.00
3566;DHT22;1797;51.844;7.684;2023-05-07T07:23:33;16.50;1.00
3566;DHT22;1797;51.844;7.684;2023-05-07T07:25:58;16.50;1.00
3566;DHT22;1797;51.844;7.684;2023-05-07T07:28:24;16.50;99.90
3566;DHT22;1797;51.844;7.684;2023-05-07T07:30:49;16.40;1.00
3566;DHT22;1797;51.844;7.684;2023-05-07T07:33:15;16.50;1.00
3566;DHT22;1797;51.844;7.684;2023-05-07T07:35:41;16.70;1.00
3566;DHT22;1797;51.844;7.684;2023-05-07T07:38:07;16.80;1.00
3566;DHT22;1797;51.844;7.684;2023-05-07T07:40:34;17.10;99.90
3566;DHT22;1797;51.844;7.684;2023-05-07T07:43:00;17.20;99.90
3566;DHT22;1797;51.844;7.684;2023-05-07T07:45:26;17.20;30.80
3566;DHT22;1797;51.844;7.684;2023-05-07T07:47:52;17.30;99.90
3566;DHT22;1797;51.844;7.684;2023-05-07T07:50:18;17.50;92.60
3566;DHT22;1797;51.844;7.684;2023-05-07T07:52:44;17.70;1.00
3566;DHT22;1797;51.844;7.684;2023-05-07T07:55:09;17.90;1.00
3566;DHT22;1797;51.844;7.684;2023-05-07T07:57:35;18.00;1.00
3566;DHT22;1797;51.844;7.684;2023-05-07T08:00:01;18.00;1.00
3566;DHT22;1797;51.844;7.684;2023-05-07T08:02:27;18.00;1.00
3566;DHT22;1797;51.844;7.684;2023-05-07T08:04:53;18.10;1.00
3566;DHT22;1797;51.844;7.684;2023-05-07T08:07:18;18.10;1.00
3566;DHT22;1797;51.844;7.684;2023-05-07T08:09:46;18.10;1.00
3566;DHT22;1797;51.844;7.684;2023-05-07T08:12:12;18.00;1.00
3566;DHT22;1797;51.844;7.684;2023-05-07T08:14:38;18.00;1.00
3566;DHT22;1797;51.844;7.684;2023-05-07T08:17:03;18.00;1.00
3566;DHT22;1797;51.844;7.684;2023-05-07T08:19:29;18.00;1.00
3566;DHT22;1797;51.844;7.684;2023-05-07T08:21:54;18.00;1.00
3566;DHT22;1797;51.844;7.684;2023-05-07T08:24:20;18.10;1.00
3566;DHT22;1797;51.844;7.684;2023-05-07T08:26:46;18.10;1.00
3566;DHT22;1797;51.844;7.684;2023-05-07T08:29:11;18.00;1.00
3566;DHT22;1797;51.844;7.684;2023-05-07T08:31:37;18.10;1.00
3566;DHT22;1797;51.844;7.684;2023-05-07T08:34:05;18.40;1.00
3566;DHT22;1797;51.844;7.684;2023-05-07T08:36:31;18.60;99.90
3566;DHT22;1797;51.844;7.684;2023-05-07T08:38:57;18.80;99.90
3566;DHT22;1797;51.844;7.684;2023-05-07T08:41:23;18.80;99.90
3566;DHT22;1797;51.844;7.684;2023-05-07T08:43:49;19.00;99.90
3566;DHT22;1797;51.844;7.684;2023-05-07T08:46:19;19.20;1.00
3566;DHT22;1797;51.844;7.684;2023-05-07T08:48:51;19.60;99.90
3566;DHT22;1797;51.844;7.684;2023-05-07T08:51:19;20.10;99.90
3566;DHT22;1797;51.844;7.684;2023-05-07T08:53:46;20.20;99.90
3566;DHT22;1797;51.844;7.684;2023-05-07T08:56:14;20.30;99.90
3566;DHT22;1797;51.844;7.684;2023-05-07T08:58:43;20.30;99.90
3566;DHT22;1797;51.844;7.684;2023-05-07T09:01:13;20.40;99.90
3566;DHT22;1797;51.844;7.684;2023-05-07T09:03:39;20.60;67.60
3566;DHT22;1797;51.844;7.684;2023-05-07T09:06:05;20.90;64.30
3566;DHT22;1797;51.844;7.684;2023-05-07T09:08:32;21.20;1.00
3566;DHT22;1797;51.844;7.684;2023-05-07T09:10:58;21.30;1.00
3566;DHT22;1797;51.844;7.684;2023-05-07T09:13:24;21.50;1.00
3566;DHT22;1797;51.844;7.684;2023-05-07T09:15:50;21.70;1.00
3566;DHT22;1797;51.844;7.684;2023-05-07T09:18:15;21.60;1.00
3566;DHT22;1797;51.844;7.684;2023-05-07T09:20:41;21.50;1.00
3566;DHT22;1797;51.844;7.684;2023-05-07T09:23:07;21.60;1.00
3566;DHT22;1797;51.844;7.684;2023-05-07T09:25:34;21.80;1.00
3566;DHT22;1797;51.844;7.684;2023-05-07T09:28:01;21.70;1.00
3566;DHT22;1797;51.844;7.684;2023-05-07T09:30:31;21.70;1.00
3566;DHT22;1797;51.844;7.684;2023-05-07T09:32:58;21.70;1.00
3566;DHT22;1797;51.844;7.684;2023-05-07T09:35:24;21.50;1.00
3566;DHT22;1797;51.844;7.684;2023-05-07T09:37:53;21.40;1.00
3566;DHT22;1797;51.844;7.684;2023-05-07T09:40:21;21.40;1.00
3566;DHT22;1797;51.844;7.684;2023-05-07T09:42:47;21.60;1.00
3566;DHT22;1797;51.844;7.684;2023-05-07T09:45:14;21.90;1.00
3566;DHT22;1797;51.844;7.684;2023-05-07T09:47:42;22.20;1.00
3566;DHT22;1797;51.844;7.684;2023-05-07T09:50:10;22.10;1.00
3566;DHT22;1797;51.844;7.684;2023-05-07T09:52:39;22.00;1.00
3566;DHT22;1797;51.844;7.684;2023-05-07T09:55:06;22.10;1.00
3566;DHT22;1797;51.844;7.684;2023-05-07T09:57:33;22.10;1.00
3566;DHT22;1797;51.844;7.684;2023-05-07T09:59:59;22.30;1.00
3566;DHT22;1797;51.844;7.684;2023-05-07T10:02:30;22.40;1.00
3566;DHT22;1797;51.844;7.684;2023-05-07T10:04:56;22.40;1.00
3566;DHT22;1797;51.844;7.684;2023-05-07T10:07:24;22.50;1.00
3566;DHT22;1797;51.844;7.684;2023-05-07T10:09:50;22.50;1.00
3566;DHT22;1797;51.844;7.684;2023-05-07T10:12:17;22.30;1.00
3566;DHT22;1797;51.844;7.684;2023-05-07T10:14:45;22.30;1.00
3566;DHT22;1797;51.844;7.684;2023-05-07T10:17:12;22.30;1.00
3566;DHT22;1797;51.844;7.684;2023-05-07T10:19:39;22.20;1.00
3566;DHT22;1797;51.844;7.684;2023-05-07T10:22:06;22.50;1.00
3566;DHT22;1797;51.844;7.684;2023-05-07T10:24:34;22.70;1.00
3566;DHT22;1797;51.844;7.684;2023-05-07T10:27:01;22.90;1.00
3566;DHT22;1797;51.844;7.684;2023-05-07T10:34:58;22.90;1.00
3566;DHT22;1797;51.844;7.684;2023-05-07T10:37:25;22.90;1.00
3566;DHT22;1797;51.844;7.684;2023-05-07T10:39:52;23.10;1.00
3566;DHT22;1797;51.844;7.684;2023-05-07T10:42:18;23.10;1.00
3566;DHT22;1797;51.844;7.684;2023-05-07T10:44:44;23.50;1.00
3566;DHT22;1797;51.844;7.684;2023-05-07T10:47:14;23.50;1.00
3566;DHT22;1797;51.844;7.684;2023-05-07T10:52:17;23.30;1.00
3566;DHT22;1797;51.844;7.684;2023-05-07T10:54:43;23.70;1.00
3566;DHT22;1797;51.844;7.684;2023-05-07T10:59:57;24.30;1.00
3566;DHT22;1797;51.844;7.684;2023-05-07T11:02:23;24.40;1.00
3566;DHT22;1797;51.844;7.684;2023-05-07T11:05:18;24.40;1.00
3566;DHT22;1797;51.844;7.684;2023-05-07T11:07:54;24.20;1.00
3566;DHT22;1797;51.844;7.684;2023-05-07T11:10:20;24.20;1.00
3566;DHT22;1797;51.844;7.684;2023-05-07T11:12:47;24.60;1.00
3566;DHT22;1797;51.844;7.684;2023-05-07T11:15:13;24.90;1.00
3566;DHT22;1797;51.844;7.684;2023-05-07T11:17:56;24.80;1.00
3566;DHT22;1797;51.844;7.684;2023-05-07T11:26:10;24.80;1.00
3566;DHT22;1797;51.844;7.684;2023-05-07T11:28:38;25.00;1.00
3566;DHT22;1797;51.844;7.684;2023-05-07T11:31:04;25.20;1.00
3566;DHT22;1797;51.844;7.684;2023-05-07T11:33:34;25.30;1.00
3566;DHT22;1797;51.844;7.684;2023-05-07T11:36:00;25.20;1.00
3566;DHT22;1797;51.844;7.684;2023-05-07T11:38:28;25.00;1.00
3566;DHT22;1797;51.844;7.684;2023-05-07T11:40:57;24.90;1.00
3566;DHT22;1797;51.844;7.684;2023-05-07T11:43:24;25.10;1.00
3566;DHT22;1797;51.844;7.684;2023-05-07T11:45:50;25.20;1.00
3566;DHT22;1797;51.844;7.684;2023-05-07T11:48:16;25.40;1.00
3566;DHT22;1797;51.844;7.684;2023-05-07T11:50:51;25.50;1.00
3566;DHT22;1797;51.844;7.684;2023-05-07T11:53:18;25.70;1.00
3566;DHT22;1797;51.844;7.684;2023-05-07T11:55:44;25.90;1.00
3566;DHT22;1797;51.844;7.684;2023-05-07T11:58:11;25.90;1.00
3566;DHT22;1797;51.844;7.684;2023-05-07T12:00:37;26.00;1.00
3566;DHT22;1797;51.844;7.684;2023-05-07T12:03:04;26.30;1.00
3566;DHT22;1797;51.844;7.684;2023-05-07T12:05:30;26.60;1.00
3566;DHT22;1797;51.844;7.684;2023-05-07T12:07:58;26.60;1.00
3566;DHT22;1797;51.844;7.684;2023-05-07T12:10:24;26.60;1.00
3566;DHT22;1797;51.844;7.684;2023-05-07T12:12:50;26.80;1.00
3566;DHT22;1797;51.844;7.684;2023-05-07T12:15:16;26.70;1.00
3566;DHT22;1797;51.844;7.684;2023-05-07T12:17:43;26.50;1.00
3566;DHT22;1797;51.844;7.684;2023-05-07T12:20:09;26.30;1.00
3566;DHT22;1797;51.844;7.684;2023-05-07T12:22:36;26.30;1.00
3566;DHT22;1797;51.844;7.684;2023-05-07T12:25:02;26.40;1.00
3566;DHT22;1797;51.844;7.684;2023-05-07T12:27:28;26.20;1.00
3566;DHT22;1797;51.844;7.684;2023-05-07T12:29:53;26.20;1.00
3566;DHT22;1797;51.844;7.684;2023-05-07T12:32:20;26.30;1.00
3566;DHT22;1797;51.844;7.684;2023-05-07T12:34:49;26.60;1.00
3566;DHT22;1797;51.844;7.684;2023-05-07T12:37:15;26.70;1.00
3566;DHT22;1797;51.844;7.684;2023-05-07T12:40:04;27.00;1.00
3566;DHT22;1797;51.844;7.684;2023-05-07T12:42:35;26.70;1.00
3566;DHT22;1797;51.844;7.684;2023-05-07T12:45:08;26.50;1.00
3566;DHT22;1797;51.844;7.684;2023-05-07T12:47:33;26.20;1.00
3566;DHT22;1797;51.844;7.684;2023-05-07T12:49:59;26.00;1.00
3566;DHT22;1797;51.844;7.684;2023-05-07T12:52:25;25.90;1.00
3566;DHT22;1797;51.844;7.684;2023-05-07T12:54:51;25.90;1.00
3566;DHT22;1797;51.844;7.684;2023-05-07T12:57:19;26.10;1.00
3566;DHT22;1797;51.844;7.684;2023-05-07T12:59:45;26.00;1.00
3566;DHT22;1797;51.844;7.684;2023-05-07T13:02:10;26.00;1.00
3566;DHT22;1797;51.844;7.684;2023-05-07T13:04:36;26.20;1.00
3566;DHT22;1797;51.844;7.684;2023-05-07T13:07:02;26.10;1.00
3566;DHT22;1797;51.844;7.684;2023-05-07T13:09:28;26.00;1.00
3566;DHT22;1797;51.844;7.684;2023-05-07T13:11:58;25.70;1.00
3566;DHT22;1797;51.844;7.684;2023-05-07T13:14:26;25.30;1.00
3566;DHT22;1797;51.844;7.684;2023-05-07T13:16:52;25.30;1.00
3566;DHT22;1797;51.844;7.684;2023-05-07T13:19:17;25.20;1.00
3566;DHT22;1797;51.844;7.684;2023-05-07T13:21:43;25.00;1.00
3566;DHT22;1797;51.844;7.684;2023-05-07T13:24:09;24.90;1.00
3566;DHT22;1797;51.844;7.684;2023-05-07T13:26:34;24.80;1.00
3566;DHT22;1797;51.844;7.684;2023-05-07T13:29:00;24.70;1.00
3566;DHT22;1797;51.844;7.684;2023-05-07T13:31:26;24.60;1.00
3566;DHT22;1797;51.844;7.684;2023-05-07T13:33:51;24.50;1.00
3566;DHT22;1797;51.844;7.684;2023-05-07T13:36:18;24.40;1.00
3566;DHT22;1797;51.844;7.684;2023-05-07T13:38:43;24.40;1.00
3566;DHT22;1797;51.844;7.684;2023-05-07T13:41:09;24.20;1.00
3566;DHT22;1797;51.844;7.684;2023-05-07T13:43:34;24.00;1.00
3566;DHT22;1797;51.844;7.684;2023-05-07T13:46:00;24.10;1.00
3566;DHT22;1797;51.844;7.684;2023-05-07T13:48:26;23.90;1.00
3566;DHT22;1797;51.844;7.684;2023-05-07T13:50:52;23.70;1.00
3566;DHT22;1797;51.844;7.684;2023-05-07T13:53:18;23.60;1.00
3566;DHT22;1797;51.844;7.684;2023-05-07T13:55:44;23.40;1.00
3566;DHT22;1797;51.844;7.684;2023-05-07T13:58:10;23.50;1.00
3566;DHT22;1797;51.844;7.684;2023-05-07T14:00:36;23.50;1.00
3566;DHT22;1797;51.844;7.684;2023-05-07T14:03:04;23.40;1.00
3566;DHT22;1797;51.844;7.684;2023-05-07T14:05:29;23.20;1.00
3566;DHT22;1797;51.844;7.684;2023-05-07T14:07:57;23.20;1.00
3566;DHT22;1797;51.844;7.684;2023-05-07T14:10:23;23.20;1.00
3566;DHT22;1797;51.844;7.684;2023-05-07T14:12:48;23.20;1.00
3566;DHT22;1797;51.844;7.684;2023-05-07T14:15:15;23.10;1.00
3566;DHT22;1797;51.844;7.684;2023-05-07T14:17:41;23.10;1.00
3566;DHT22;1797;51.844;7.684;2023-05-07T14:20:08;23.10;1.00
3566;DHT22;1797;51.844;7.684;2023-05-07T14:22:33;23.20;1.00
3566;DHT22;1797;51.844;7.684;2023-05-07T14:24:59;23.30;1.00
3566;DHT22;1797;51.844;7.684;2023-05-07T14:27:25;23.40;1.00
3566;DHT22;1797;51.844;7.684;2023-05-07T14:29:50;23.50;1.00
3566;DHT22;1797;51.844;7.684;2023-05-07T14:32:20;23.50;1.00
3566;DHT22;1797;51.844;7.684;2023-05-07T14:34:46;23.40;1.00
3566;DHT22;1797;51.844;7.684;2023-05-07T14:37:11;23.40;1.00
3566;DHT22;1797;51.844;7.684;2023-05-07T14:39:37;23.40;1.00
3566;DHT22;1797;51.844;7.684;2023-05-07T14:42:03;23.40;1.00
3566;DHT22;1797;51.844;7.684;2023-05-07T14:44:28;23.40;1.00
3566;DHT22;1797;51.844;7.684;2023-05-07T14:46:55;23.40;1.00
3566;DHT22;1797;51.844;7.684;2023-05-07T14:49:22;23.30;1.00
3566;DHT22;1797;51.844;7.684;2023-05-07T14:51:48;23.40;1.00
3566;DHT22;1797;51.844;7.684;2023-05-07T14:54:14;23.30;1.00
3566;DHT22;1797;51.844;7.684;2023-05-07T14:56:40;23.30;1.00
3566;DHT22;1797;51.844;7.684;2023-05-07T14:59:06;23.40;1.00
3566;DHT22;1797;51.844;7.684;2023-05-07T15:01:32;23.60;1.00
3566;DHT22;1797;51.844;7.684;2023-05-07T15:03:59;23.50;1.00
3566;DHT22;1797;51.844;7.684;2023-05-07T15:06:25;23.60;1.00
3566;DHT22;1797;51.844;7.684;2023-05-07T15:08:52;23.70;1.00
3566;DHT22;1797;51.844;7.684;2023-05-07T15:11:17;23.60;1.00
3566;DHT22;1797;51.844;7.684;2023-05-07T15:13:43;23.30;1.00
3566;DHT22;1797;51.844;7.684;2023-05-07T15:16:09;23.10;1.00
3566;DHT22;1797;51.844;7.684;2023-05-07T15:18:34;23.10;1.00
3566;DHT22;1797;51.844;7.684;2023-05-07T15:21:00;23.10;1.00
3566;DHT22;1797;51.844;7.684;2023-05-07T15:23:26;23.00;1.00
3566;DHT22;1797;51.844;7.684;2023-05-07T15:25:52;22.90;1.00
3566;DHT22;1797;51.844;7.684;2023-05-07T15:28:18;22.90;1.00
3566;DHT22;1797;51.844;7.684;2023-05-07T15:30:44;22.90;1.00
3566;DHT22;1797;51.844;7.684;2023-05-07T15:33:09;22.90;1.00
3566;DHT22;1797;51.844;7.684;2023-05-07T15:35:35;22.90;1.00
3566;DHT22;1797;51.844;7.684;2023-05-07T15:38:01;22.80;1.00
3566;DHT22;1797;51.844;7.684;2023-05-07T15:40:28;22.70;1.00
3566;DHT22;1797;51.844;7.684;2023-05-07T15:42:56;22.50;1.00
3566;DHT22;1797;51.844;7.684;2023-05-07T15:45:22;22.50;1.00
3566;DHT22;1797;51.844;7.684;2023-05-07T15:47:48;22.40;1.00
3566;DHT22;1797;51.844;7.684;2023-05-07T15:50:14;22.30;1.00
3566;DHT22;1797;51.844;7.684;2023-05-07T15:52:40;22.20;1.00
3566;DHT22;1797;51.844;7.684;2023-05-07T15:55:07;22.30;1.00
3566;DHT22;1797;51.844;7.684;2023-05-07T15:57:33;22.30;1.00
3566;DHT22;1797;51.844;7.684;2023-05-07T15:59:59;22.40;1.00
3566;DHT22;1797;51.844;7.684;2023-05-07T16:02:24;22.30;1.00
3566;DHT22;1797;51.844;7.684;2023-05-07T16:04:51;22.20;1.00
3566;DHT22;1797;51.844;7.684;2023-05-07T16:07:16;22.20;1.00
3566;DHT22;1797;51.844;7.684;2023-05-07T16:09:44;22.10;1.00
3566;DHT22;1797;51.844;7.684;2023-05-07T16:12:09;22.10;1.00
3566;DHT22;1797;51.844;7.684;2023-05-07T16:14:36;22.10;1.00
3566;DHT22;1797;51.844;7.684;2023-05-07T16:17:02;21.90;1.00
3566;DHT22;1797;51.844;7.684;2023-05-07T16:19:27;21.80;1.00